sensor_id;sensor_type;location;lat;lon;timestamp;P1;durP1;ratioP1;P2;durP2;ratioP2
7377;SDS011;3730;50.856;12.776;2023-04-29T00:01:36;16.70;;;14.50;;
7377;SDS011;3730;50.856;12.776;2023-04-29T00:04:02;17.23;;;14.77;;
7377;SDS011;3730;50.856;12.776;2023-04-29T00:06:28;16.60;;;14.43;;
7377;SDS011;3730;50.856;12.776;2023-04-29T00:08:54;18.97;;;15.40;;
7377;SDS011;3730;50.856;12.776;2023-04-29T00:11:20;17.67;;;15.50;;
7377;SDS011;3730;50.856;12.776;2023-04-29T00:13:46;16.57;;;14.57;;
7377;SDS011;3730;50.856;12.776;2023-04-29T00:16:13;16.20;;;14.00;;
7377;SDS011;3730;50.856;12.776;2023-04-29T00:18:39;18.33;;;15.30;;
7377;SDS011;3730;50.856;12.776;2023-04-29T00:21:05;17.60;;;15.37;;
7377;SDS011;3730;50.856;12.776;2023-04-29T00:23:31;18.27;;;15.40;;
7377;SDS011;3730;50.856;12.776;2023-04-29T00:25:57;17.93;;;15.80;;
7377;SDS011;3730;50.856;12.776;2023-04-29T00:28:23;17.80;;;15.73;;
7377;SDS011;3730;50.856;12.776;2023-04-29T00:30:49;18.40;;;15.43;;
7377;SDS011;3730;50.856;12.776;2023-04-29T00:33:15;17.37;;;15.47;;
7377;SDS011;3730;50.856;12.776;2023-04-29T00:35:41;16.00;;;14.23;;
7377;SDS011;3730;50.856;12.776;2023-04-29T00:38:08;17.67;;;15.13;;
7377;SDS011;3730;50.856;12.776;2023-04-29T00:40:34;17.77;;;15.87;;
7377;SDS011;3730;50.856;12.776;2023-04-29T00:43:00;16.70;;;14.93;;
7377;SDS011;3730;50.856;12.776;2023-04-29T00:45:26;18.20;;;15.33;;
7377;SDS011;3730;50.856;12.776;2023-04-29T00:47:52;18.90;;;15.27;;
7377;SDS011;3730;50.856;12.776;2023-04-29T00:50:18;20.47;;;15.73;;
7377;SDS011;3730;50.856;12.776;2023-04-29T00:52:44;19.10;;;15.63;;
7377;SDS011;3730;50.856;12.776;2023-04-29T00:55:10;18.70;;;15.90;;
7377;SDS011;3730;50.856;12.776;2023-04-29T00:57:37;18.00;;;15.63;;
7377;SDS011;3730;50.856;12.776;2023-04-29T01:00:03;18.17;;;16.00;;
7377;SDS011;3730;50.856;12.776;2023-04-29T01:02:30;18.90;;;15.13;;
7377;SDS011;3730;50.856;12.776;2023-04-29T01:04:56;15.93;;;13.77;;
7377;SDS011;3730;50.856;12.776;2023-04-29T01:17:35;16.37;;;14.20;;
7377;SDS011;3730;50.856;12.776;2023-04-29T01:20:01;17.20;;;14.43;;
7377;SDS011;3730;50.856;12.776;2023-04-29T01:22:29;19.97;;;16.37;;
7377;SDS011;3730;50.856;12.776;2023-04-29T01:24:55;20.70;;;17.20;;
7377;SDS011;3730;50.856;12.776;2023-04-29T01:27:40;21.30;;;18.50;;
7377;SDS011;3730;50.856;12.776;2023-04-29T01:32:42;23.17;;;18.73;;
7377;SDS011;3730;50.856;12.776;2023-04-29T01:35:21;21.70;;;18.70;;
7377;SDS011;3730;50.856;12.776;2023-04-29T01:40:21;23.83;;;19.60;;
7377;SDS011;3730;50.856;12.776;2023-04-29T01:42:55;24.97;;;20.43;;
7377;SDS011;3730;50.856;12.776;2023-04-29T01:45:25;27.17;;;21.40;;
7377;SDS011;3730;50.856;12.776;2023-04-29T01:47:52;25.80;;;21.17;;
7377;SDS011;3730;50.856;12.776;2023-04-29T01:50:22;25.13;;;20.97;;
7377;SDS011;3730;50.856;12.776;2023-04-29T01:52:48;26.97;;;22.00;;
7377;SDS011;3730;50.856;12.776;2023-04-29T01:55:15;26.80;;;21.63;;
7377;SDS011;3730;50.856;12.776;2023-04-29T01:57:41;26.53;;;21.27;;
7377;SDS011;3730;50.856;12.776;2023-04-29T02:00:08;24.27;;;20.67;;
7377;SDS011;3730;50.856;12.776;2023-04-29T02:02:35;26.50;;;21.87;;
7377;SDS011;3730;50.856;12.776;2023-04-29T02:05:01;24.10;;;19.93;;
7377;SDS011;3730;50.856;12.776;2023-04-29T02:07:27;25.80;;;20.40;;
7377;SDS011;3730;50.856;12.776;2023-04-29T02:09:52;22.37;;;19.53;;
7377;SDS011;3730;50.856;12.776;2023-04-29T02:12:18;25.60;;;20.70;;
7377;SDS011;3730;50.856;12.776;2023-04-29T02:14:44;24.20;;;20.10;;
7377;SDS011;3730;50.856;12.776;2023-04-29T02:17:12;23.07;;;20.30;;
7377;SDS011;3730;50.856;12.776;2023-04-29T02:19:38;23.90;;;20.20;;
7377;SDS011;3730;50.856;12.776;2023-04-29T02:22:04;25.37;;;21.57;;
7377;SDS011;3730;50.856;12.776;2023-04-29T02:24:30;23.93;;;20.03;;
7377;SDS011;3730;50.856;12.776;2023-04-29T02:26:56;23.80;;;21.00;;
7377;SDS011;3730;50.856;12.776;2023-04-29T02:29:23;25.33;;;20.40;;
7377;SDS011;3730;50.856;12.776;2023-04-29T02:31:51;26.53;;;21.20;;
7377;SDS011;3730;50.856;12.776;2023-04-29T02:34:17;26.70;;;22.63;;
7377;SDS011;3730;50.856;12.776;2023-04-29T02:36:43;27.60;;;22.23;;
7377;SDS011;3730;50.856;12.776;2023-04-29T02:39:09;27.30;;;21.10;;
7377;SDS011;3730;50.856;12.776;2023-04-29T02:41:35;25.43;;;21.50;;
7377;SDS011;3730;50.856;12.776;2023-04-29T02:44:01;26.27;;;21.53;;
7377;SDS011;3730;50.856;12.776;2023-04-29T02:46:27;25.00;;;21.10;;
7377;SDS011;3730;50.856;12.776;2023-04-29T02:48:53;24.63;;;20.63;;
7377;SDS011;3730;50.856;12.776;2023-04-29T02:51:19;25.93;;;21.77;;
7377;SDS011;3730;50.856;12.776;2023-04-29T02:53:45;28.07;;;22.20;;
7377;SDS011;3730;50.856;12.776;2023-04-29T02:56:11;26.47;;;20.63;;
7377;SDS011;3730;50.856;12.776;2023-04-29T02:58:37;29.43;;;21.60;;
7377;SDS011;3730;50.856;12.776;2023-04-29T03:01:03;25.43;;;20.57;;
7377;SDS011;3730;50.856;12.776;2023-04-29T03:03:29;24.97;;;21.03;;
7377;SDS011;3730;50.856;12.776;2023-04-29T03:05:55;23.83;;;20.33;;
7377;SDS011;3730;50.856;12.776;2023-04-29T03:08:21;26.53;;;21.73;;
7377;SDS011;3730;50.856;12.776;2023-04-29T03:10:48;24.83;;;20.57;;
7377;SDS011;3730;50.856;12.776;2023-04-29T03:13:14;24.60;;;21.00;;
7377;SDS011;3730;50.856;12.776;2023-04-29T03:15:40;22.90;;;19.53;;
7377;SDS011;3730;50.856;12.776;2023-04-29T03:18:08;27.80;;;22.57;;
7377;SDS011;3730;50.856;12.776;2023-04-29T03:20:34;25.70;;;20.30;;
7377;SDS011;3730;50.856;12.776;2023-04-29T03:23:00;25.67;;;20.67;;
7377;SDS011;3730;50.856;12.776;2023-04-29T03:25:26;22.43;;;19.40;;
7377;SDS011;3730;50.856;12.776;2023-04-29T03:27:52;23.37;;;19.87;;
7377;SDS011;3730;50.856;12.776;2023-04-29T03:30:18;23.90;;;19.30;;
7377;SDS011;3730;50.856;12.776;2023-04-29T03:32:44;22.53;;;19.47;;
7377;SDS011;3730;50.856;12.776;2023-04-29T03:35:10;25.43;;;19.57;;
7377;SDS011;3730;50.856;12.776;2023-04-29T03:37:37;22.63;;;18.40;;
7377;SDS011;3730;50.856;12.776;2023-04-29T03:40:03;23.87;;;19.93;;
7377;SDS011;3730;50.856;12.776;2023-04-29T03:42:30;23.53;;;19.43;;
7377;SDS011;3730;50.856;12.776;2023-04-29T03:44:56;21.27;;;17.80;;
7377;SDS011;3730;50.856;12.776;2023-04-29T03:47:22;25.93;;;19.23;;
7377;SDS011;3730;50.856;12.776;2023-04-29T03:49:48;22.27;;;18.27;;
7377;SDS011;3730;50.856;12.776;2023-04-29T03:52:14;21.47;;;17.90;;
7377;SDS011;3730;50.856;12.776;2023-04-29T03:54:40;21.60;;;18.73;;
7377;SDS011;3730;50.856;12.776;2023-04-29T03:57:06;22.60;;;19.30;;
7377;SDS011;3730;50.856;12.776;2023-04-29T03:59:32;22.33;;;19.00;;
7377;SDS011;3730;50.856;12.776;2023-04-29T04:01:58;21.27;;;17.33;;
7377;SDS011;3730;50.856;12.776;2023-04-29T04:04:24;21.90;;;18.30;;
7377;SDS011;3730;50.856;12.776;2023-04-29T04:06:50;20.50;;;16.90;;
7377;SDS011;3730;50.856;12.776;2023-04-29T04:09:16;20.77;;;17.77;;
7377;SDS011;3730;50.856;12.776;2023-04-29T04:11:43;21.67;;;18.23;;
7377;SDS011;3730;50.856;12.776;2023-04-29T04:14:09;20.43;;;17.13;;
7377;SDS011;3730;50.856;12.776;2023-04-29T04:16:35;19.57;;;16.77;;
7377;SDS011;3730;50.856;12.776;2023-04-29T04:19:02;23.33;;;19.00;;
7377;SDS011;3730;50.856;12.776;2023-04-29T04:21:28;21.87;;;18.57;;
7377;SDS011;3730;50.856;12.776;2023-04-29T04:23:55;20.50;;;17.60;;
7377;SDS011;3730;50.856;12.776;2023-04-29T04:26:21;20.93;;;17.47;;
7377;SDS011;3730;50.856;12.776;2023-04-29T04:28:47;20.73;;;17.70;;
7377;SDS011;3730;50.856;12.776;2023-04-29T04:31:13;20.67;;;17.13;;
7377;SDS011;3730;50.856;12.776;2023-04-29T04:33:39;21.73;;;18.43;;
7377;SDS011;3730;50.856;12.776;2023-04-29T04:36:06;21.93;;;18.37;;
7377;SDS011;3730;50.856;12.776;2023-04-29T04:38:32;22.50;;;17.90;;
7377;SDS011;3730;50.856;12.776;2023-04-29T04:40:58;21.30;;;18.13;;
7377;SDS011;3730;50.856;12.776;2023-04-29T04:43:24;19.93;;;17.40;;
7377;SDS011;3730;50.856;12.776;2023-04-29T04:45:50;21.13;;;18.23;;
7377;SDS011;3730;50.856;12.776;2023-04-29T04:48:17;21.17;;;17.73;;
7377;SDS011;3730;50.856;12.776;2023-04-29T04:50:43;23.50;;;18.83;;
7377;SDS011;3730;50.856;12.776;2023-04-29T04:53:09;22.10;;;19.23;;
7377;SDS011;3730;50.856;12.776;2023-04-29T04:55:35;21.13;;;18.37;;
7377;SDS011;3730;50.856;12.776;2023-04-29T04:58:01;18.90;;;16.70;;
7377;SDS011;3730;50.856;12.776;2023-04-29T05:00:27;21.33;;;17.03;;
7377;SDS011;3730;50.856;12.776;2023-04-29T05:02:53;19.53;;;17.27;;
7377;SDS011;3730;50.856;12.776;2023-04-29T05:05:19;18.60;;;15.90;;
7377;SDS011;3730;50.856;12.776;2023-04-29T05:07:45;19.40;;;16.50;;
7377;SDS011;3730;50.856;12.776;2023-04-29T05:10:11;20.87;;;16.37;;
7377;SDS011;3730;50.856;12.776;2023-04-29T05:12:37;19.20;;;16.90;;
7377;SDS011;3730;50.856;12.776;2023-04-29T05:15:03;19.07;;;16.40;;
7377;SDS011;3730;50.856;12.776;2023-04-29T05:17:29;17.53;;;15.63;;
7377;SDS011;3730;50.856;12.776;2023-04-29T05:19:55;20.33;;;17.27;;
7377;SDS011;3730;50.856;12.776;2023-04-29T05:22:21;19.97;;;16.00;;
7377;SDS011;3730;50.856;12.776;2023-04-29T05:24:47;18.13;;;16.10;;
7377;SDS011;3730;50.856;12.776;2023-04-29T05:27:15;19.03;;;16.70;;
7377;SDS011;3730;50.856;12.776;2023-04-29T05:29:41;18.60;;;16.27;;
7377;SDS011;3730;50.856;12.776;2023-04-29T05:32:07;19.57;;;16.20;;
7377;SDS011;3730;50.856;12.776;2023-04-29T05:34:33;19.17;;;16.13;;
7377;SDS011;3730;50.856;12.776;2023-04-29T05:36:59;18.37;;;16.23;;
7377;SDS011;3730;50.856;12.776;2023-04-29T05:39:26;17.73;;;15.03;;
7377;SDS011;3730;50.856;12.776;2023-04-29T05:41:52;17.33;;;14.60;;
7377;SDS011;3730;50.856;12.776;2023-04-29T05:44:18;16.93;;;14.93;;
7377;SDS011;3730;50.856;12.776;2023-04-29T05:46:44;18.70;;;15.30;;
7377;SDS011;3730;50.856;12.776;2023-04-29T05:49:10;17.67;;;14.83;;
7377;SDS011;3730;50.856;12.776;2023-04-29T05:51:36;18.80;;;15.53;;
7377;SDS011;3730;50.856;12.776;2023-04-29T05:54:02;21.03;;;16.43;;
7377;SDS011;3730;50.856;12.776;2023-04-29T05:56:28;16.53;;;14.73;;
7377;SDS011;3730;50.856;12.776;2023-04-29T05:58:54;19.17;;;15.73;;
7377;SDS011;3730;50.856;12.776;2023-04-29T06:01:20;19.67;;;15.90;;
7377;SDS011;3730;50.856;12.776;2023-04-29T06:03:46;19.60;;;15.60;;
7377;SDS011;3730;50.856;12.776;2023-04-29T06:06:12;19.43;;;15.90;;
7377;SDS011;3730;50.856;12.776;2023-04-29T06:08:38;18.73;;;15.77;;
7377;SDS011;3730;50.856;12.776;2023-04-29T06:11:04;17.77;;;14.77;;
7377;SDS011;3730;50.856;12.776;2023-04-29T06:13:31;17.27;;;14.93;;
7377;SDS011;3730;50.856;12.776;2023-04-29T06:15:57;25.00;;;15.47;;
7377;SDS011;3730;50.856;12.776;2023-04-29T06:18:23;20.33;;;14.43;;
7377;SDS011;3730;50.856;12.776;2023-04-29T06:20:49;19.77;;;13.83;;
7377;SDS011;3730;50.856;12.776;2023-04-29T06:23:15;16.93;;;13.73;;
7377;SDS011;3730;50.856;12.776;2023-04-29T06:25:41;17.40;;;14.53;;
7377;SDS011;3730;50.856;12.776;2023-04-29T06:28:07;20.23;;;15.73;;
7377;SDS011;3730;50.856;12.776;2023-04-29T06:30:33;18.27;;;14.37;;
7377;SDS011;3730;50.856;12.776;2023-04-29T06:32:59;18.60;;;14.50;;
7377;SDS011;3730;50.856;12.776;2023-04-29T06:35:25;20.43;;;15.37;;
7377;SDS011;3730;50.856;12.776;2023-04-29T06:37:51;17.93;;;14.10;;
7377;SDS011;3730;50.856;12.776;2023-04-29T06:40:17;18.17;;;15.07;;
7377;SDS011;3730;50.856;12.776;2023-04-29T06:42:43;16.60;;;13.40;;
7377;SDS011;3730;50.856;12.776;2023-04-29T06:45:10;19.37;;;15.27;;
7377;SDS011;3730;50.856;12.776;2023-04-29T06:47:36;18.53;;;12.97;;
7377;SDS011;3730;50.856;12.776;2023-04-29T06:50:02;20.27;;;14.63;;
7377;SDS011;3730;50.856;12.776;2023-04-29T06:52:29;20.70;;;12.97;;
7377;SDS011;3730;50.856;12.776;2023-04-29T06:54:55;16.83;;;13.57;;
7377;SDS011;3730;50.856;12.776;2023-04-29T06:57:21;15.60;;;13.27;;
7377;SDS011;3730;50.856;12.776;2023-04-29T06:59:47;14.70;;;12.73;;
7377;SDS011;3730;50.856;12.776;2023-04-29T07:02:13;19.23;;;14.10;;
7377;SDS011;3730;50.856;12.776;2023-04-29T07:04:40;15.07;;;12.70;;
7377;SDS011;3730;50.856;12.776;2023-04-29T07:07:06;16.37;;;12.50;;
7377;SDS011;3730;50.856;12.776;2023-04-29T07:09:32;17.60;;;13.50;;
7377;SDS011;3730;50.856;12.776;2023-04-29T07:11:58;16.07;;;13.23;;
7377;SDS011;3730;50.856;12.776;2023-04-29T07:14:26;14.47;;;12.20;;
7377;SDS011;3730;50.856;12.776;2023-04-29T07:16:52;16.57;;;12.97;;
7377;SDS011;3730;50.856;12.776;2023-04-29T07:19:18;14.07;;;11.37;;
7377;SDS011;3730;50.856;12.776;2023-04-29T07:21:45;14.53;;;11.77;;
7377;SDS011;3730;50.856;12.776;2023-04-29T07:24:11;15.83;;;12.40;;
7377;SDS011;3730;50.856;12.776;2023-04-29T07:26:37;15.23;;;12.23;;
7377;SDS011;3730;50.856;12.776;2023-04-29T07:29:03;15.23;;;11.63;;
7377;SDS011;3730;50.856;12.776;2023-04-29T07:31:29;14.17;;;11.10;;
7377;SDS011;3730;50.856;12.776;2023-04-29T07:33:55;13.47;;;10.57;;
7377;SDS011;3730;50.856;12.776;2023-04-29T07:36:21;15.07;;;11.23;;
7377;SDS011;3730;50.856;12.776;2023-04-29T07:38:47;13.00;;;11.30;;
7377;SDS011;3730;50.856;12.776;2023-04-29T07:41:13;13.73;;;11.07;;
7377;SDS011;3730;50.856;12.776;2023-04-29T07:43:39;12.80;;;10.33;;
7377;SDS011;3730;50.856;12.776;2023-04-29T07:46:05;13.53;;;11.00;;
7377;SDS011;3730;50.856;12.776;2023-04-29T07:48:35;11.50;;;9.87;;
7377;SDS011;3730;50.856;12.776;2023-04-29T07:51:02;10.97;;;9.77;;
7377;SDS011;3730;50.856;12.776;2023-04-29T07:53:28;12.33;;;10.37;;
7377;SDS011;3730;50.856;12.776;2023-04-29T07:55:54;10.50;;;9.40;;
7377;SDS011;3730;50.856;12.776;2023-04-29T07:58:20;12.73;;;9.57;;
7377;SDS011;3730;50.856;12.776;2023-04-29T08:00:46;11.27;;;9.43;;
7377;SDS011;3730;50.856;12.776;2023-04-29T08:03:12;9.93;;;7.93;;
7377;SDS011;3730;50.856;12.776;2023-04-29T08:05:38;10.40;;;8.30;;
7377;SDS011;3730;50.856;12.776;2023-04-29T08:08:04;9.57;;;8.27;;
7377;SDS011;3730;50.856;12.776;2023-04-29T08:10:30;9.13;;;8.23;;
7377;SDS011;3730;50.856;12.776;2023-04-29T08:12:56;10.03;;;8.00;;
7377;SDS011;3730;50.856;12.776;2023-04-29T08:15:23;11.03;;;8.17;;
7377;SDS011;3730;50.856;12.776;2023-04-29T08:17:49;8.53;;;7.40;;
7377;SDS011;3730;50.856;12.776;2023-04-29T08:20:15;9.53;;;8.00;;
7377;SDS011;3730;50.856;12.776;2023-04-29T08:22:41;7.87;;;7.07;;
7377;SDS011;3730;50.856;12.776;2023-04-29T08:25:07;8.17;;;6.70;;
7377;SDS011;3730;50.856;12.776;2023-04-29T08:27:33;9.00;;;5.70;;
7377;SDS011;3730;50.856;12.776;2023-04-29T08:29:59;7.70;;;6.20;;
7377;SDS011;3730;50.856;12.776;2023-04-29T08:32:25;5.90;;;5.30;;
7377;SDS011;3730;50.856;12.776;2023-04-29T08:34:51;7.87;;;5.83;;
7377;SDS011;3730;50.856;12.776;2023-04-29T08:37:17;5.97;;;5.30;;
7377;SDS011;3730;50.856;12.776;2023-04-29T08:39:44;6.20;;;5.60;;
7377;SDS011;3730;50.856;12.776;2023-04-29T08:42:11;7.07;;;6.00;;
7377;SDS011;3730;50.856;12.776;2023-04-29T08:44:39;6.00;;;5.10;;
7377;SDS011;3730;50.856;12.776;2023-04-29T08:47:05;5.87;;;5.17;;
7377;SDS011;3730;50.856;12.776;2023-04-29T08:49:31;5.10;;;4.53;;
7377;SDS011;3730;50.856;12.776;2023-04-29T08:51:58;5.47;;;4.83;;
7377;SDS011;3730;50.856;12.776;2023-04-29T08:54:24;7.00;;;5.30;;
7377;SDS011;3730;50.856;12.776;2023-04-29T08:56:52;6.30;;;5.27;;
7377;SDS011;3730;50.856;12.776;2023-04-29T08:59:19;6.60;;;5.90;;
7377;SDS011;3730;50.856;12.776;2023-04-29T09:01:45;6.80;;;5.70;;
7377;SDS011;3730;50.856;12.776;2023-04-29T09:06:57;7.30;;;6.53;;
7377;SDS011;3730;50.856;12.776;2023-04-29T09:09:24;6.90;;;5.83;;
7377;SDS011;3730;50.856;12.776;2023-04-29T09:11:50;6.83;;;5.83;;
7377;SDS011;3730;50.856;12.776;2023-04-29T09:14:17;8.00;;;6.60;;
7377;SDS011;3730;50.856;12.776;2023-04-29T09:16:46;7.33;;;6.00;;
7377;SDS011;3730;50.856;12.776;2023-04-29T09:19:27;7.23;;;6.50;;
7377;SDS011;3730;50.856;12.776;2023-04-29T09:21:54;7.43;;;5.83;;
7377;SDS011;3730;50.856;12.776;2023-04-29T09:24:23;9.33;;;6.83;;
7377;SDS011;3730;50.856;12.776;2023-04-29T09:26:50;8.73;;;6.77;;
7377;SDS011;3730;50.856;12.776;2023-04-29T09:29:16;7.63;;;6.60;;
7377;SDS011;3730;50.856;12.776;2023-04-29T09:31:43;7.77;;;6.40;;
7377;SDS011;3730;50.856;12.776;2023-04-29T09:34:09;7.27;;;6.57;;
7377;SDS011;3730;50.856;12.776;2023-04-29T09:39:02;8.90;;;6.90;;
7377;SDS011;3730;50.856;12.776;2023-04-29T09:41:30;8.67;;;6.93;;
7377;SDS011;3730;50.856;12.776;2023-04-29T09:44:02;8.40;;;7.57;;
7377;SDS011;3730;50.856;12.776;2023-04-29T09:46:30;7.97;;;7.10;;
7377;SDS011;3730;50.856;12.776;2023-04-29T09:48:57;9.30;;;7.70;;
7377;SDS011;3730;50.856;12.776;2023-04-29T09:51:22;10.20;;;7.73;;
7377;SDS011;3730;50.856;12.776;2023-04-29T09:53:48;10.77;;;9.67;;
7377;SDS011;3730;50.856;12.776;2023-04-29T09:56:14;12.37;;;11.07;;
7377;SDS011;3730;50.856;12.776;2023-04-29T09:58:40;14.93;;;13.03;;
7377;SDS011;3730;50.856;12.776;2023-04-29T10:01:06;18.57;;;16.10;;
7377;SDS011;3730;50.856;12.776;2023-04-29T10:06:01;21.30;;;17.63;;
7377;SDS011;3730;50.856;12.776;2023-04-29T10:08:28;23.40;;;19.00;;
7377;SDS011;3730;50.856;12.776;2023-04-29T10:10:56;23.10;;;19.40;;
7377;SDS011;3730;50.856;12.776;2023-04-29T10:13:24;24.27;;;19.23;;
7377;SDS011;3730;50.856;12.776;2023-04-29T10:15:58;23.73;;;20.03;;
7377;SDS011;3730;50.856;12.776;2023-04-29T10:18:53;23.23;;;19.93;;
7377;SDS011;3730;50.856;12.776;2023-04-29T10:21:20;22.00;;;19.17;;
7377;SDS011;3730;50.856;12.776;2023-04-29T10:23:51;23.20;;;19.70;;
7377;SDS011;3730;50.856;12.776;2023-04-29T10:26:18;22.87;;;18.40;;
7377;SDS011;3730;50.856;12.776;2023-04-29T10:28:45;25.40;;;19.93;;
7377;SDS011;3730;50.856;12.776;2023-04-29T10:31:11;24.60;;;20.57;;
7377;SDS011;3730;50.856;12.776;2023-04-29T10:33:41;25.53;;;20.70;;
7377;SDS011;3730;50.856;12.776;2023-04-29T10:36:10;24.43;;;20.57;;
7377;SDS011;3730;50.856;12.776;2023-04-29T10:38:40;25.73;;;22.33;;
7377;SDS011;3730;50.856;12.776;2023-04-29T10:41:15;26.97;;;22.77;;
7377;SDS011;3730;50.856;12.776;2023-04-29T10:43:52;27.13;;;23.20;;
7377;SDS011;3730;50.856;12.776;2023-04-29T10:46:19;29.13;;;23.27;;
7377;SDS011;3730;50.856;12.776;2023-04-29T10:48:45;32.10;;;25.03;;
7377;SDS011;3730;50.856;12.776;2023-04-29T10:51:11;32.53;;;24.80;;
7377;SDS011;3730;50.856;12.776;2023-04-29T10:56:23;30.47;;;23.77;;
7377;SDS011;3730;50.856;12.776;2023-04-29T10:59:00;31.97;;;24.97;;
7377;SDS011;3730;50.856;12.776;2023-04-29T11:01:39;28.37;;;23.33;;
7377;SDS011;3730;50.856;12.776;2023-04-29T11:04:05;32.17;;;26.13;;
7377;SDS011;3730;50.856;12.776;2023-04-29T11:09:00;31.03;;;24.83;;
7377;SDS011;3730;50.856;12.776;2023-04-29T11:11:38;30.73;;;25.50;;
7377;SDS011;3730;50.856;12.776;2023-04-29T11:14:05;28.37;;;24.23;;
7377;SDS011;3730;50.856;12.776;2023-04-29T11:16:34;27.43;;;23.50;;
7377;SDS011;3730;50.856;12.776;2023-04-29T11:21:32;24.17;;;20.73;;
7377;SDS011;3730;50.856;12.776;2023-04-29T11:23:59;25.00;;;22.10;;
7377;SDS011;3730;50.856;12.776;2023-04-29T11:26:26;24.20;;;20.97;;
7377;SDS011;3730;50.856;12.776;2023-04-29T11:28:52;23.63;;;20.77;;
7377;SDS011;3730;50.856;12.776;2023-04-29T11:31:18;25.70;;;22.37;;
7377;SDS011;3730;50.856;12.776;2023-04-29T11:33:45;23.47;;;20.50;;
7377;SDS011;3730;50.856;12.776;2023-04-29T11:36:11;23.10;;;20.70;;
7377;SDS011;3730;50.856;12.776;2023-04-29T11:38:38;22.53;;;20.13;;
7377;SDS011;3730;50.856;12.776;2023-04-29T11:41:05;19.10;;;17.10;;
7377;SDS011;3730;50.856;12.776;2023-04-29T11:43:31;18.90;;;16.93;;
7377;SDS011;3730;50.856;12.776;2023-04-29T11:45:57;18.30;;;16.33;;
7377;SDS011;3730;50.856;12.776;2023-04-29T11:48:24;18.43;;;16.37;;
7377;SDS011;3730;50.856;12.776;2023-04-29T11:50:55;17.40;;;15.60;;
7377;SDS011;3730;50.856;12.776;2023-04-29T11:53:23;17.23;;;15.00;;
7377;SDS011;3730;50.856;12.776;2023-04-29T11:55:51;16.37;;;14.67;;
7377;SDS011;3730;50.856;12.776;2023-04-29T11:58:19;16.83;;;15.07;;
7377;SDS011;3730;50.856;12.776;2023-04-29T12:00:48;17.00;;;15.20;;
7377;SDS011;3730;50.856;12.776;2023-04-29T12:03:18;19.67;;;16.57;;
7377;SDS011;3730;50.856;12.776;2023-04-29T12:05:46;22.20;;;16.53;;
7377;SDS011;3730;50.856;12.776;2023-04-29T12:08:13;18.87;;;16.80;;
7377;SDS011;3730;50.856;12.776;2023-04-29T12:10:39;18.67;;;16.57;;
7377;SDS011;3730;50.856;12.776;2023-04-29T12:13:06;21.23;;;18.33;;
7377;SDS011;3730;50.856;12.776;2023-04-29T12:15:32;22.07;;;19.30;;
7377;SDS011;3730;50.856;12.776;2023-04-29T12:17:59;21.30;;;18.77;;
7377;SDS011;3730;50.856;12.776;2023-04-29T12:20:26;19.20;;;17.20;;
7377;SDS011;3730;50.856;12.776;2023-04-29T12:22:53;18.83;;;16.60;;
7377;SDS011;3730;50.856;12.776;2023-04-29T12:25:23;17.47;;;15.17;;
7377;SDS011;3730;50.856;12.776;2023-04-29T12:27:49;18.07;;;16.13;;
7377;SDS011;3730;50.856;12.776;2023-04-29T12:30:15;15.87;;;14.27;;
7377;SDS011;3730;50.856;12.776;2023-04-29T12:32:41;16.47;;;14.13;;
7377;SDS011;3730;50.856;12.776;2023-04-29T12:35:16;13.43;;;12.03;;
7377;SDS011;3730;50.856;12.776;2023-04-29T12:37:46;11.70;;;10.50;;
7377;SDS011;3730;50.856;12.776;2023-04-29T12:40:13;11.17;;;9.57;;
7377;SDS011;3730;50.856;12.776;2023-04-29T12:42:40;10.70;;;9.60;;
7377;SDS011;3730;50.856;12.776;2023-04-29T12:45:06;10.23;;;9.23;;
7377;SDS011;3730;50.856;12.776;2023-04-29T12:47:32;12.70;;;10.70;;
7377;SDS011;3730;50.856;12.776;2023-04-29T12:49:59;11.83;;;10.70;;
7377;SDS011;3730;50.856;12.776;2023-04-29T12:52:25;12.20;;;10.63;;
7377;SDS011;3730;50.856;12.776;2023-04-29T12:54:51;11.30;;;10.20;;
7377;SDS011;3730;50.856;12.776;2023-04-29T12:57:17;12.13;;;10.87;;
7377;SDS011;3730;50.856;12.776;2023-04-29T12:59:43;11.93;;;10.83;;
7377;SDS011;3730;50.856;12.776;2023-04-29T13:02:09;10.70;;;9.63;;
7377;SDS011;3730;50.856;12.776;2023-04-29T13:04:36;10.40;;;9.40;;
7377;SDS011;3730;50.856;12.776;2023-04-29T13:07:02;11.00;;;9.90;;
7377;SDS011;3730;50.856;12.776;2023-04-29T13:09:28;10.70;;;9.43;;
7377;SDS011;3730;50.856;12.776;2023-04-29T13:11:55;12.63;;;11.30;;
7377;SDS011;3730;50.856;12.776;2023-04-29T13:14:21;11.47;;;10.37;;
7377;SDS011;3730;50.856;12.776;2023-04-29T13:16:47;13.33;;;12.03;;
7377;SDS011;3730;50.856;12.776;2023-04-29T13:19:13;15.70;;;14.07;;
7377;SDS011;3730;50.856;12.776;2023-04-29T13:21:39;16.93;;;15.33;;
7377;SDS011;3730;50.856;12.776;2023-04-29T13:24:05;18.83;;;16.87;;
7377;SDS011;3730;50.856;12.776;2023-04-29T13:26:32;17.30;;;15.50;;
7377;SDS011;3730;50.856;12.776;2023-04-29T13:28:58;16.20;;;14.60;;
7377;SDS011;3730;50.856;12.776;2023-04-29T13:31:24;17.60;;;15.80;;
7377;SDS011;3730;50.856;12.776;2023-04-29T13:33:51;17.87;;;16.03;;
7377;SDS011;3730;50.856;12.776;2023-04-29T13:36:19;18.07;;;16.37;;
7377;SDS011;3730;50.856;12.776;2023-04-29T13:38:45;18.70;;;16.80;;
7377;SDS011;3730;50.856;12.776;2023-04-29T13:41:12;19.67;;;17.60;;
7377;SDS011;3730;50.856;12.776;2023-04-29T13:43:38;21.67;;;18.73;;
7377;SDS011;3730;50.856;12.776;2023-04-29T13:46:04;18.97;;;15.53;;
7377;SDS011;3730;50.856;12.776;2023-04-29T13:48:30;15.43;;;13.87;;
7377;SDS011;3730;50.856;12.776;2023-04-29T13:50:56;14.00;;;12.57;;
7377;SDS011;3730;50.856;12.776;2023-04-29T13:53:22;12.63;;;11.33;;
7377;SDS011;3730;50.856;12.776;2023-04-29T13:55:50;15.63;;;13.07;;
7377;SDS011;3730;50.856;12.776;2023-04-29T13:58:16;15.13;;;12.20;;
7377;SDS011;3730;50.856;12.776;2023-04-29T14:00:45;13.57;;;12.17;;
7377;SDS011;3730;50.856;12.776;2023-04-29T14:03:11;14.93;;;13.47;;
7377;SDS011;3730;50.856;12.776;2023-04-29T14:05:37;16.60;;;14.83;;
7377;SDS011;3730;50.856;12.776;2023-04-29T14:08:03;17.37;;;15.60;;
7377;SDS011;3730;50.856;12.776;2023-04-29T14:10:30;17.53;;;15.47;;
7377;SDS011;3730;50.856;12.776;2023-04-29T14:12:56;18.27;;;16.37;;
7377;SDS011;3730;50.856;12.776;2023-04-29T14:15:22;17.17;;;15.30;;
7377;SDS011;3730;50.856;12.776;2023-04-29T14:17:48;17.40;;;15.73;;
7377;SDS011;3730;50.856;12.776;2023-04-29T14:20:14;15.87;;;14.27;;
7377;SDS011;3730;50.856;12.776;2023-04-29T14:22:40;16.13;;;14.50;;
7377;SDS011;3730;50.856;12.776;2023-04-29T14:25:06;16.43;;;14.73;;
7377;SDS011;3730;50.856;12.776;2023-04-29T14:27:32;16.93;;;15.23;;
7377;SDS011;3730;50.856;12.776;2023-04-29T14:30:00;19.40;;;16.70;;
7377;SDS011;3730;50.856;12.776;2023-04-29T14:32:28;19.47;;;17.33;;
7377;SDS011;3730;50.856;12.776;2023-04-29T14:34:54;18.73;;;16.80;;
7377;SDS011;3730;50.856;12.776;2023-04-29T14:37:20;19.33;;;17.33;;
7377;SDS011;3730;50.856;12.776;2023-04-29T14:39:46;20.27;;;18.17;;
7377;SDS011;3730;50.856;12.776;2023-04-29T14:42:12;18.80;;;16.90;;
7377;SDS011;3730;50.856;12.776;2023-04-29T14:44:39;20.37;;;18.10;;
7377;SDS011;3730;50.856;12.776;2023-04-29T14:47:05;20.20;;;16.47;;
7377;SDS011;3730;50.856;12.776;2023-04-29T14:49:31;17.50;;;15.80;;
7377;SDS011;3730;50.856;12.776;2023-04-29T14:51:57;18.40;;;16.50;;
7377;SDS011;3730;50.856;12.776;2023-04-29T14:54:23;16.50;;;14.90;;
7377;SDS011;3730;50.856;12.776;2023-04-29T14:56:51;15.63;;;14.03;;
7377;SDS011;3730;50.856;12.776;2023-04-29T14:59:17;15.20;;;13.63;;
7377;SDS011;3730;50.856;12.776;2023-04-29T15:01:43;15.83;;;14.23;;
7377;SDS011;3730;50.856;12.776;2023-04-29T15:04:09;15.63;;;14.03;;
7377;SDS011;3730;50.856;12.776;2023-04-29T15:06:36;16.37;;;14.67;;